LAN310 SCCI-SCTE
Flight info
| Callsign | LAN310 |
|---|---|
| Flight time | N/A |
| Altitude | 36000 |
| Route | SIRUN4A SIRUN UQ802 CAUKE CAUKE3A |
| Aircraft | CRJ9/M-SDFGIRWY/S |
Departure
| Time | 2026-04-29 18:25 |
|---|---|
| Airport | President Carlos Ibáñez International Airport (SCCI) |
Arrival
| Time | N/A |
|---|---|
| Airport | El Tepual International Airport (SCTE) |
| Time | Latitude | Longitude | Altitude | Speed | Heading |
|---|---|---|---|---|---|
| 2026-04-29 18:00 | -53.00454 | -70.84450 | 114 ft | 0 kts | 179° |
| 2026-04-29 18:17 | -53.00453 | -70.84450 | 142 ft | 1 kts | 179° |
| 2026-04-29 18:17 | -53.00430 | -70.84451 | 112 ft | 4 kts | 179° |
| 2026-04-29 18:18 | -53.00407 | -70.84452 | 113 ft | 4 kts | 174° |
| 2026-04-29 18:18 | -53.00386 | -70.84468 | 111 ft | 4 kts | 124° |
| 2026-04-29 18:18 | -53.00381 | -70.84507 | 111 ft | 4 kts | 89° |
| 2026-04-29 18:18 | -53.00382 | -70.84526 | 111 ft | 0 kts | 89° |
| 2026-04-29 18:20 | -53.00382 | -70.84521 | 111 ft | 2 kts | 89° |
| 2026-04-29 18:20 | -53.00381 | -70.84462 | 113 ft | 8 kts | 89° |
| 2026-04-29 18:20 | -53.00353 | -70.84375 | 113 ft | 10 kts | 11° |
| 2026-04-29 18:21 | -53.00268 | -70.84369 | 114 ft | 14 kts | 17° |
| 2026-04-29 18:21 | -53.00246 | -70.84216 | 113 ft | 17 kts | 90° |
| 2026-04-29 18:21 | -53.00243 | -70.84001 | 111 ft | 20 kts | 88° |
| 2026-04-29 18:21 | -53.00239 | -70.83747 | 109 ft | 23 kts | 89° |
| 2026-04-29 18:22 | -53.00238 | -70.83483 | 108 ft | 23 kts | 89° |
| 2026-04-29 18:22 | -53.00233 | -70.83209 | 107 ft | 23 kts | 88° |
| 2026-04-29 18:22 | -53.00208 | -70.83039 | 108 ft | 10 kts | 15° |
| 2026-04-29 18:22 | -53.00143 | -70.83040 | 108 ft | 9 kts | 359° |
| 2026-04-29 18:23 | -53.00078 | -70.83048 | 105 ft | 9 kts | 340° |
| 2026-04-29 18:23 | -53.00057 | -70.83127 | 107 ft | 8 kts | 268° |
| 2026-04-29 18:23 | -53.00057 | -70.83144 | 106 ft | 0 kts | 269° |
| 2026-04-29 18:23 | -53.00057 | -70.83154 | 106 ft | 8 kts | 269° |
| 2026-04-29 18:24 | -53.00063 | -70.83584 | 105 ft | 68 kts | 269° |
| 2026-04-29 18:24 | -53.00078 | -70.84679 | 118 ft | 119 kts | 269° |
| 2026-04-29 18:24 | -53.00096 | -70.86271 | 218 ft | 149 kts | 269° |
| 2026-04-29 18:24 | -53.00106 | -70.88040 | 710 ft | 156 kts | 270° |
| 2026-04-29 18:25 | -53.00060 | -70.89921 | 1139 ft | 173 kts | 284° |
| 2026-04-29 18:25 | -52.99333 | -70.91565 | 1666 ft | 191 kts | 325° |
| 2026-04-29 18:25 | -52.98404 | -70.92374 | 2096 ft | 201 kts | 323° |
| 2026-04-29 18:25 | -52.97202 | -70.93683 | 2639 ft | 212 kts | 315° |
| 2026-04-29 18:26 | -52.96101 | -70.95339 | 3190 ft | 221 kts | 308° |
| 2026-04-29 18:26 | -52.95055 | -70.97285 | 3723 ft | 232 kts | 304° |
| 2026-04-29 18:26 | -52.93985 | -70.99380 | 4285 ft | 243 kts | 304° |
| 2026-04-29 18:26 | -52.93084 | -71.01132 | 4714 ft | 253 kts | 305° |
| 2026-04-29 18:27 | -52.91938 | -71.03343 | 5243 ft | 251 kts | 305° |
| 2026-04-29 18:27 | -52.90802 | -71.05521 | 5773 ft | 247 kts | 304° |
| 2026-04-29 18:27 | -52.89664 | -71.07668 | 6441 ft | 250 kts | 306° |
| 2026-04-29 18:27 | -52.88435 | -71.09744 | 7190 ft | 253 kts | 309° |
| 2026-04-29 18:28 | -52.87144 | -71.11764 | 7907 ft | 257 kts | 311° |
| 2026-04-29 18:28 | -52.85828 | -71.13782 | 8629 ft | 259 kts | 310° |
| 2026-04-29 18:28 | -52.84503 | -71.15832 | 9325 ft | 262 kts | 310° |
| 2026-04-29 18:28 | -52.83171 | -71.17902 | 9971 ft | 264 kts | 311° |
| 2026-04-29 18:29 | -52.81824 | -71.19992 | 10590 ft | 267 kts | 311° |
| 2026-04-29 18:29 | -52.80912 | -71.21411 | 10867 ft | 275 kts | 311° |
| 2026-04-29 18:29 | -52.79007 | -71.24370 | 11461 ft | 287 kts | 311° |
| 2026-04-29 18:29 | -52.77526 | -71.26667 | 11923 ft | 296 kts | 311° |
| 2026-04-29 18:30 | -52.76026 | -71.28990 | 12373 ft | 304 kts | 311° |
| 2026-04-29 18:30 | -52.74436 | -71.31429 | 12825 ft | 312 kts | 312° |
| 2026-04-29 18:30 | -52.72822 | -71.33890 | 13271 ft | 319 kts | 312° |
| 2026-04-29 18:30 | -52.71197 | -71.36379 | 13691 ft | 326 kts | 312° |
| 2026-04-29 18:31 | -52.69515 | -71.38958 | 14124 ft | 332 kts | 312° |
| 2026-04-29 18:31 | -52.67812 | -71.41577 | 14555 ft | 338 kts | 312° |
| 2026-04-29 18:31 | -52.66078 | -71.44256 | 14999 ft | 344 kts | 312° |
| 2026-04-29 18:31 | -52.64320 | -71.46963 | 15439 ft | 349 kts | 313° |
| 2026-04-29 18:32 | -52.62536 | -71.49715 | 15876 ft | 353 kts | 312° |
| 2026-04-29 18:32 | -52.58897 | -71.55283 | 16769 ft | 361 kts | 313° |
| 2026-04-29 18:32 | -52.57048 | -71.58107 | 17220 ft | 364 kts | 313° |
| 2026-04-29 18:33 | -52.55219 | -71.60910 | 17638 ft | 367 kts | 313° |
| 2026-04-29 18:33 | -52.53340 | -71.63758 | 18043 ft | 369 kts | 313° |
| 2026-04-29 18:33 | -52.51449 | -71.66625 | 18440 ft | 371 kts | 312° |
| 2026-04-29 18:33 | -52.49556 | -71.69520 | 18855 ft | 372 kts | 313° |
| 2026-04-29 18:34 | -52.47653 | -71.72416 | 19262 ft | 373 kts | 312° |
| 2026-04-29 18:34 | -52.46390 | -71.74334 | 19541 ft | 374 kts | 312° |
| 2026-04-29 18:34 | -52.43854 | -71.78190 | 20101 ft | 375 kts | 312° |
| 2026-04-29 18:34 | -52.41940 | -71.81095 | 20535 ft | 375 kts | 313° |
| 2026-04-29 18:35 | -52.40019 | -71.83994 | 20959 ft | 375 kts | 312° |
| 2026-04-29 18:35 | -52.38102 | -71.86879 | 21417 ft | 374 kts | 312° |
| 2026-04-29 18:35 | -52.36190 | -71.89763 | 21857 ft | 374 kts | 312° |
| 2026-04-29 18:35 | -52.34279 | -71.92642 | 22280 ft | 372 kts | 311° |
| 2026-04-29 18:36 | -52.32367 | -71.95499 | 22746 ft | 371 kts | 311° |
| 2026-04-29 18:36 | -52.30474 | -71.98342 | 23165 ft | 369 kts | 311° |
| 2026-04-29 18:36 | -52.29042 | -72.00504 | 23450 ft | 368 kts | 311° |
| 2026-04-29 18:36 | -52.27166 | -72.03334 | 23853 ft | 366 kts | 311° |
| 2026-04-29 18:37 | -52.25293 | -72.06149 | 24235 ft | 364 kts | 311° |
| 2026-04-29 18:37 | -52.23430 | -72.08937 | 24624 ft | 362 kts | 311° |
| 2026-04-29 18:37 | -52.21571 | -72.11721 | 24887 ft | 364 kts | 311° |
| 2026-04-29 18:37 | -52.19678 | -72.14514 | 25140 ft | 367 kts | 313° |
| 2026-04-29 18:38 | -52.17769 | -72.17283 | 25408 ft | 368 kts | 313° |
| 2026-04-29 18:38 | -52.15846 | -72.20061 | 25667 ft | 370 kts | 313° |
| 2026-04-29 18:38 | -52.13922 | -72.22837 | 25925 ft | 371 kts | 313° |
| 2026-04-29 18:38 | -52.12005 | -72.25599 | 26181 ft | 372 kts | 313° |
| 2026-04-29 18:39 | -52.10060 | -72.28405 | 26477 ft | 373 kts | 313° |
| 2026-04-29 18:39 | -52.08114 | -72.31200 | 26694 ft | 376 kts | 313° |
| 2026-04-29 18:39 | -52.06145 | -72.34034 | 26865 ft | 379 kts | 313° |
| 2026-04-29 18:39 | -52.04155 | -72.36890 | 27032 ft | 383 kts | 313° |
| 2026-04-29 18:40 | -52.02149 | -72.39761 | 27217 ft | 386 kts | 313° |
| 2026-04-29 18:40 | -52.00134 | -72.42649 | 27390 ft | 389 kts | 314° |
| 2026-04-29 18:40 | -51.98627 | -72.44802 | 27514 ft | 390 kts | 313° |
| 2026-04-29 18:40 | -51.96576 | -72.47735 | 27683 ft | 393 kts | 314° |
| 2026-04-29 18:41 | -51.90335 | -72.56537 | 28172 ft | 400 kts | 313° |
| 2026-04-29 18:41 | -51.88223 | -72.59509 | 28349 ft | 402 kts | 313° |
| 2026-04-29 18:42 | -51.86144 | -72.62462 | 28529 ft | 404 kts | 313° |
| 2026-04-29 18:42 | -51.84018 | -72.65467 | 28701 ft | 407 kts | 315° |
| 2026-04-29 18:42 | -51.81713 | -72.68187 | 28881 ft | 413 kts | 320° |
| 2026-04-29 18:42 | -51.79245 | -72.70620 | 29070 ft | 417 kts | 324° |
| 2026-04-29 18:43 | -51.76711 | -72.72930 | 29274 ft | 419 kts | 324° |
| 2026-04-29 18:43 | -51.74161 | -72.75254 | 29449 ft | 420 kts | 324° |
| 2026-04-29 18:43 | -51.71615 | -72.77608 | 29585 ft | 421 kts | 323° |
| 2026-04-29 18:43 | -51.69101 | -72.80022 | 29744 ft | 421 kts | 322° |
| 2026-04-29 18:44 | -51.66576 | -72.82439 | 29904 ft | 423 kts | 322° |
| 2026-04-29 18:44 | -51.64081 | -72.84841 | 30055 ft | 424 kts | 322° |
| 2026-04-29 18:44 | -51.61518 | -72.87293 | 30193 ft | 424 kts | 322° |
| 2026-04-29 18:44 | -51.58970 | -72.89719 | 30342 ft | 426 kts | 323° |
| 2026-04-29 18:45 | -51.56429 | -72.92173 | 30516 ft | 426 kts | 322° |
| 2026-04-29 18:45 | -51.53915 | -72.94593 | 30661 ft | 427 kts | 323° |
| 2026-04-29 18:45 | -51.51348 | -72.97019 | 30775 ft | 428 kts | 323° |
| 2026-04-29 18:45 | -51.48772 | -72.99453 | 30919 ft | 429 kts | 323° |
| 2026-04-29 18:46 | -51.46792 | -73.01340 | 31047 ft | 430 kts | 322° |
| 2026-04-29 18:46 | -51.44220 | -73.03799 | 31205 ft | 431 kts | 323° |
| 2026-04-29 18:46 | -51.41637 | -73.06245 | 31372 ft | 432 kts | 323° |
| 2026-04-29 18:46 | -51.39040 | -73.08690 | 31523 ft | 433 kts | 323° |
| 2026-04-29 18:47 | -51.36443 | -73.11137 | 31670 ft | 433 kts | 323° |
| 2026-04-29 18:47 | -51.33846 | -73.13583 | 31797 ft | 434 kts | 323° |
| 2026-04-29 18:47 | -51.31241 | -73.16031 | 31962 ft | 434 kts | 323° |
| 2026-04-29 18:47 | -51.28660 | -73.18438 | 32140 ft | 434 kts | 323° |
| 2026-04-29 18:48 | -51.26056 | -73.20869 | 32352 ft | 433 kts | 323° |
| 2026-04-29 18:48 | -51.23457 | -73.23311 | 32484 ft | 433 kts | 323° |
| 2026-04-29 18:48 | -51.20860 | -73.25751 | 32653 ft | 433 kts | 323° |
| 2026-04-29 18:48 | -51.18256 | -73.28192 | 32830 ft | 434 kts | 323° |
| 2026-04-29 18:49 | -51.15646 | -73.30631 | 32984 ft | 434 kts | 323° |
| 2026-04-29 18:49 | -51.13031 | -73.33045 | 33150 ft | 434 kts | 323° |
| 2026-04-29 18:49 | -51.10410 | -73.35471 | 33289 ft | 434 kts | 323° |
| 2026-04-29 18:49 | -51.07793 | -73.37897 | 33441 ft | 434 kts | 323° |
| 2026-04-29 18:50 | -51.05191 | -73.40300 | 33621 ft | 433 kts | 322° |
| 2026-04-29 18:50 | -51.02585 | -73.42722 | 33738 ft | 433 kts | 322° |
| 2026-04-29 18:50 | -50.99986 | -73.45136 | 33888 ft | 433 kts | 322° |
| 2026-04-29 18:50 | -50.98687 | -73.46345 | 33945 ft | 433 kts | 323° |
| 2026-04-29 18:51 | -50.96082 | -73.48754 | 34072 ft | 434 kts | 323° |
| 2026-04-29 18:51 | -50.93503 | -73.51127 | 34216 ft | 433 kts | 323° |
| 2026-04-29 18:51 | -50.90890 | -73.53528 | 34375 ft | 433 kts | 323° |
| 2026-04-29 18:51 | -50.88287 | -73.55919 | 34510 ft | 433 kts | 323° |
| 2026-04-29 18:52 | -50.85670 | -73.58308 | 34654 ft | 433 kts | 323° |
| 2026-04-29 18:52 | -50.83063 | -73.60699 | 34783 ft | 433 kts | 323° |
| 2026-04-29 18:52 | -50.80456 | -73.63090 | 34916 ft | 433 kts | 323° |
| 2026-04-29 18:52 | -50.77851 | -73.65481 | 35038 ft | 433 kts | 323° |
| 2026-04-29 18:53 | -50.75244 | -73.67867 | 35153 ft | 434 kts | 323° |
| 2026-04-29 18:53 | -50.72629 | -73.70249 | 35287 ft | 434 kts | 323° |
| 2026-04-29 18:53 | -50.67379 | -73.75031 | 35324 ft | 439 kts | 323° |
| 2026-04-29 18:54 | -50.62076 | -73.79827 | 35495 ft | 439 kts | 323° |
| 2026-04-29 18:54 | -50.56791 | -73.84605 | 35578 ft | 440 kts | 323° |
| 2026-04-29 18:55 | -50.51502 | -73.89423 | 35585 ft | 440 kts | 324° |
| 2026-04-29 18:55 | -50.46172 | -73.94176 | 35588 ft | 440 kts | 323° |
| 2026-04-29 18:56 | -50.40743 | -73.98586 | 35614 ft | 447 kts | 335° |
| 2026-04-29 18:56 | -50.35155 | -74.00224 | 35638 ft | 455 kts | 344° |
| 2026-04-29 18:57 | -50.28929 | -74.01519 | 35657 ft | 458 kts | 347° |
| 2026-04-29 18:57 | -50.22467 | -74.01238 | 35631 ft | 471 kts | 360° |
| 2026-04-29 18:58 | -50.15995 | -73.99942 | 35676 ft | 472 kts | 359° |
| 2026-04-29 18:58 | -50.10187 | -73.99199 | 35634 ft | 469 kts | 357° |
| 2026-04-29 18:59 | -50.03679 | -73.98433 | 35493 ft | 468 kts | 356° |
| 2026-04-29 18:59 | -49.97880 | -73.97707 | 35595 ft | 468 kts | 358° |
| 2026-04-29 19:00 | -49.91395 | -73.96860 | 35646 ft | 468 kts | 358° |
| 2026-04-29 19:00 | -49.84891 | -73.95999 | 35704 ft | 470 kts | 358° |
| 2026-04-29 19:01 | -49.78365 | -73.95144 | 35665 ft | 472 kts | 358° |
| 2026-04-29 19:01 | -49.71794 | -73.94281 | 35651 ft | 473 kts | 358° |
| 2026-04-29 19:02 | -49.66335 | -73.93583 | 35659 ft | 474 kts | 358° |
| 2026-04-29 19:02 | -49.58685 | -73.92557 | 35664 ft | 476 kts | 358° |
| 2026-04-29 19:03 | -49.52074 | -73.91656 | 35630 ft | 477 kts | 358° |
| 2026-04-29 19:03 | -49.45459 | -73.90748 | 35699 ft | 476 kts | 357° |
| 2026-04-29 19:04 | -49.39959 | -73.90089 | 35676 ft | 477 kts | 356° |
| 2026-04-29 19:04 | -49.33336 | -73.89331 | 35678 ft | 478 kts | 357° |
| 2026-04-29 19:05 | -49.26705 | -73.88481 | 35689 ft | 479 kts | 357° |
| 2026-04-29 19:05 | -49.20060 | -73.87561 | 35672 ft | 479 kts | 356° |
| 2026-04-29 19:06 | -49.13459 | -73.86728 | 35696 ft | 479 kts | 357° |
| 2026-04-29 19:07 | -49.03445 | -73.85423 | 35739 ft | 481 kts | 357° |
| 2026-04-29 19:07 | -48.97669 | -73.84673 | 35712 ft | 482 kts | 356° |
| 2026-04-29 19:08 | -48.90993 | -73.83830 | 35710 ft | 482 kts | 356° |
| 2026-04-29 19:08 | -48.84275 | -73.82979 | 35712 ft | 483 kts | 356° |
| 2026-04-29 19:09 | -48.77623 | -73.82150 | 35707 ft | 482 kts | 355° |
| 2026-04-29 19:09 | -48.70892 | -73.81306 | 35718 ft | 482 kts | 356° |
| 2026-04-29 19:10 | -48.64216 | -73.80477 | 35730 ft | 483 kts | 356° |
| 2026-04-29 19:10 | -48.57544 | -73.79642 | 35712 ft | 483 kts | 355° |
| 2026-04-29 19:11 | -48.50885 | -73.78884 | 35695 ft | 480 kts | 355° |
| 2026-04-29 19:11 | -48.44159 | -73.78075 | 35739 ft | 482 kts | 356° |
| 2026-04-29 19:12 | -48.37518 | -73.77192 | 35728 ft | 482 kts | 356° |
| 2026-04-29 19:12 | -48.30860 | -73.76353 | 35715 ft | 480 kts | 355° |
| 2026-04-29 19:13 | -48.24145 | -73.75547 | 35679 ft | 480 kts | 354° |
| 2026-04-29 19:13 | -48.17568 | -73.74864 | 35599 ft | 477 kts | 355° |
| 2026-04-29 19:14 | -48.10971 | -73.73917 | 35682 ft | 474 kts | 356° |
| 2026-04-29 19:14 | -48.04420 | -73.73117 | 35715 ft | 470 kts | 353° |
| 2026-04-29 19:15 | -47.97932 | -73.72438 | 35750 ft | 470 kts | 354° |
| 2026-04-29 19:15 | -47.92839 | -73.71847 | 35754 ft | 471 kts | 354° |
| 2026-04-29 19:16 | -47.86298 | -73.70958 | 35815 ft | 473 kts | 355° |
| 2026-04-29 19:16 | -47.79713 | -73.70220 | 35787 ft | 473 kts | 354° |
| 2026-04-29 19:17 | -47.73120 | -73.69482 | 35787 ft | 476 kts | 354° |
| 2026-04-29 19:17 | -47.66493 | -73.68619 | 35864 ft | 479 kts | 355° |
| 2026-04-29 19:18 | -47.59844 | -73.67832 | 35733 ft | 478 kts | 353° |
| 2026-04-29 19:18 | -47.53189 | -73.67034 | 35792 ft | 480 kts | 355° |
| 2026-04-29 19:19 | -47.46541 | -73.66176 | 35772 ft | 479 kts | 354° |
| 2026-04-29 19:19 | -47.39943 | -73.65489 | 35740 ft | 477 kts | 354° |
| 2026-04-29 19:20 | -47.33323 | -73.64668 | 35793 ft | 478 kts | 354° |
| 2026-04-29 19:20 | -47.26666 | -73.63830 | 35836 ft | 478 kts | 354° |
| 2026-04-29 19:21 | -47.20018 | -73.63117 | 35850 ft | 480 kts | 353° |
| 2026-04-29 19:21 | -47.13332 | -73.62384 | 35822 ft | 482 kts | 354° |
| 2026-04-29 19:22 | -47.06640 | -73.61614 | 35848 ft | 483 kts | 354° |
| 2026-04-29 19:22 | -46.99931 | -73.60792 | 35911 ft | 484 kts | 354° |
| 2026-04-29 19:23 | -46.93872 | -73.60364 | 35855 ft | 480 kts | 350° |
| 2026-04-29 19:23 | -46.87201 | -73.60151 | 35851 ft | 481 kts | 351° |
| 2026-04-29 19:24 | -46.80554 | -73.59892 | 35834 ft | 481 kts | 351° |
| 2026-04-29 19:24 | -46.73857 | -73.59578 | 35848 ft | 481 kts | 351° |
| 2026-04-29 19:25 | -46.67156 | -73.59263 | 35873 ft | 481 kts | 351° |
| 2026-04-29 19:25 | -46.60470 | -73.58951 | 35806 ft | 481 kts | 351° |
| 2026-04-29 19:26 | -46.53776 | -73.58624 | 35902 ft | 481 kts | 351° |
| 2026-04-29 19:26 | -46.47068 | -73.58242 | 35901 ft | 482 kts | 352° |
| 2026-04-29 19:27 | -46.40378 | -73.57912 | 35897 ft | 481 kts | 351° |
| 2026-04-29 19:27 | -46.33689 | -73.57606 | 35891 ft | 480 kts | 350° |
| 2026-04-29 19:28 | -46.26991 | -73.57385 | 35882 ft | 482 kts | 351° |
| 2026-04-29 19:28 | -46.20287 | -73.57081 | 35816 ft | 481 kts | 351° |
| 2026-04-29 19:28 | -46.16992 | -73.56916 | 35707 ft | 479 kts | 351° |
| 2026-04-29 19:29 | -46.13625 | -73.56741 | 35780 ft | 476 kts | 352° |
| 2026-04-29 19:29 | -46.07069 | -73.56352 | 35785 ft | 471 kts | 351° |
| 2026-04-29 19:30 | -46.00521 | -73.56069 | 35873 ft | 470 kts | 350° |
| 2026-04-29 19:30 | -45.94696 | -73.55801 | 35858 ft | 471 kts | 350° |
| 2026-04-29 19:31 | -45.88159 | -73.55501 | 35907 ft | 471 kts | 350° |
| 2026-04-29 19:31 | -45.81574 | -73.55211 | 35885 ft | 472 kts | 350° |
| 2026-04-29 19:32 | -45.75062 | -73.54903 | 35868 ft | 472 kts | 350° |
| 2026-04-29 19:32 | -45.68535 | -73.54614 | 35894 ft | 472 kts | 350° |
| 2026-04-29 19:33 | -45.61952 | -73.54314 | 35885 ft | 472 kts | 350° |
| 2026-04-29 19:33 | -45.55366 | -73.54018 | 35921 ft | 473 kts | 350° |
| 2026-04-29 19:34 | -45.48789 | -73.53728 | 35936 ft | 475 kts | 350° |
| 2026-04-29 19:34 | -45.42125 | -73.53471 | 35996 ft | 477 kts | 350° |
| 2026-04-29 19:35 | -45.35521 | -73.53197 | 35972 ft | 481 kts | 350° |
| 2026-04-29 19:35 | -45.28777 | -73.52877 | 35957 ft | 483 kts | 350° |
| 2026-04-29 19:36 | -45.22055 | -73.52581 | 35949 ft | 484 kts | 350° |
| 2026-04-29 19:36 | -45.15345 | -73.52279 | 35872 ft | 484 kts | 351° |
| 2026-04-29 19:37 | -45.08572 | -73.51506 | 35944 ft | 490 kts | 354° |
| 2026-04-29 19:37 | -45.02935 | -73.50672 | 35959 ft | 490 kts | 354° |